sensor_id;sensor_type;location;lat;lon;timestamp;pressure;altitude;pressure_sealevel;temperature;humidity
75414;BME280;64758;52.122;5.404;2022-12-11T00:00:04;101444.25;;;0.85;100.00
75414;BME280;64758;52.122;5.404;2022-12-11T00:02:31;101442.47;;;0.86;100.00
75414;BME280;64758;52.122;5.404;2022-12-11T00:04:58;101444.75;;;0.90;100.00
75414;BME280;64758;52.122;5.404;2022-12-11T00:07:24;101442.16;;;0.90;100.00
75414;BME280;64758;52.122;5.404;2022-12-11T00:09:51;101438.59;;;0.91;100.00
75414;BME280;64758;52.122;5.404;2022-12-11T00:12:17;101429.09;;;0.90;100.00
75414;BME280;64758;52.122;5.404;2022-12-11T00:14:44;101437.66;;;0.92;100.00
75414;BME280;64758;52.122;5.404;2022-12-11T00:17:10;101436.69;;;0.93;100.00
75414;BME280;64758;52.122;5.404;2022-12-11T00:19:36;101440.03;;;0.95;100.00
75414;BME280;64758;52.122;5.404;2022-12-11T00:22:03;101439.69;;;1.00;100.00
75414;BME280;64758;52.122;5.404;2022-12-11T00:24:29;101435.53;;;0.97;100.00
75414;BME280;64758;52.122;5.404;2022-12-11T00:26:56;101440.41;;;1.02;100.00
75414;BME280;64758;52.122;5.404;2022-12-11T00:29:22;101428.06;;;1.04;100.00
75414;BME280;64758;52.122;5.404;2022-12-11T00:31:49;101434.88;;;1.06;100.00
75414;BME280;64758;52.122;5.404;2022-12-11T00:34:15;101433.94;;;1.07;100.00
75414;BME280;64758;52.122;5.404;2022-12-11T00:36:42;101447.72;;;1.09;100.00
75414;BME280;64758;52.122;5.404;2022-12-11T00:39:08;101432.97;;;1.08;100.00
75414;BME280;64758;52.122;5.404;2022-12-11T00:41:35;101428.56;;;1.09;100.00
75414;BME280;64758;52.122;5.404;2022-12-11T00:44:02;101428.47;;;1.10;100.00
75414;BME280;64758;52.122;5.404;2022-12-11T00:46:29;101429.19;;;1.12;100.00
75414;BME280;64758;52.122;5.404;2022-12-11T00:48:56;101418.59;;;1.14;100.00
75414;BME280;64758;52.122;5.404;2022-12-11T00:51:22;101418.50;;;1.15;100.00
75414;BME280;64758;52.122;5.404;2022-12-11T00:53:49;101410.88;;;1.12;100.00
75414;BME280;64758;52.122;5.404;2022-12-11T00:56:18;101421.00;;;1.17;100.00
75414;BME280;64758;52.122;5.404;2022-12-11T00:58:46;101411.38;;;1.17;100.00
75414;BME280;64758;52.122;5.404;2022-12-11T01:01:15;101413.28;;;1.15;100.00
75414;BME280;64758;52.122;5.404;2022-12-11T01:03:43;101414.22;;;1.14;100.00
75414;BME280;64758;52.122;5.404;2022-12-11T01:06:16;101408.28;;;1.12;100.00
75414;BME280;64758;52.122;5.404;2022-12-11T01:08:43;101413.38;;;1.14;100.00
75414;BME280;64758;52.122;5.404;2022-12-11T01:11:12;101410.66;;;1.15;100.00
75414;BME280;64758;52.122;5.404;2022-12-11T01:13:39;101397.59;;;1.15;100.00
75414;BME280;64758;52.122;5.404;2022-12-11T01:16:08;101409.72;;;1.16;100.00
75414;BME280;64758;52.122;5.404;2022-12-11T01:18:36;101414.59;;;1.21;100.00
75414;BME280;64758;52.122;5.404;2022-12-11T01:21:11;101413.78;;;1.20;100.00
75414;BME280;64758;52.122;5.404;2022-12-11T01:23:39;101412.09;;;1.19;100.00
75414;BME280;64758;52.122;5.404;2022-12-11T01:26:11;101409.59;;;1.18;100.00
75414;BME280;64758;52.122;5.404;2022-12-11T01:28:39;101421.13;;;1.15;100.00
75414;BME280;64758;52.122;5.404;2022-12-11T01:31:13;101408.38;;;1.11;100.00
75414;BME280;64758;52.122;5.404;2022-12-11T01:33:41;101414.22;;;1.14;100.00
75414;BME280;64758;52.122;5.404;2022-12-11T01:36:12;101416.84;;;1.14;100.00
75414;BME280;64758;52.122;5.404;2022-12-11T01:38:39;101426.13;;;1.18;100.00
75414;BME280;64758;52.122;5.404;2022-12-11T01:41:06;101418.59;;;1.14;100.00
75414;BME280;64758;52.122;5.404;2022-12-11T01:43:33;101412.44;;;1.15;100.00
75414;BME280;64758;52.122;5.404;2022-12-11T01:46:00;101418.00;;;1.10;100.00
75414;BME280;64758;52.122;5.404;2022-12-11T01:48:28;101420.72;;;1.09;100.00
75414;BME280;64758;52.122;5.404;2022-12-11T01:50:59;101419.91;;;1.08;100.00
75414;BME280;64758;52.122;5.404;2022-12-11T01:53:31;101415.84;;;1.04;100.00
75414;BME280;64758;52.122;5.404;2022-12-11T01:55:59;101417.28;;;1.08;100.00
75414;BME280;64758;52.122;5.404;2022-12-11T01:58:34;101414.78;;;1.07;100.00
75414;BME280;64758;52.122;5.404;2022-12-11T02:01:04;101416.56;;;1.06;100.00
75414;BME280;64758;52.122;5.404;2022-12-11T02:03:31;101406.69;;;1.10;100.00
75414;BME280;64758;52.122;5.404;2022-12-11T02:05:59;101411.13;;;1.09;100.00
75414;BME280;64758;52.122;5.404;2022-12-11T02:08:25;101399.69;;;1.10;100.00
75414;BME280;64758;52.122;5.404;2022-12-11T02:11:05;101405.03;;;1.09;100.00
75414;BME280;64758;52.122;5.404;2022-12-11T02:13:48;101398.13;;;1.08;100.00
75414;BME280;64758;52.122;5.404;2022-12-11T02:16:25;101395.41;;;1.09;100.00
75414;BME280;64758;52.122;5.404;2022-12-11T02:21:48;101400.28;;;1.14;100.00
75414;BME280;64758;52.122;5.404;2022-12-11T02:24:28;101396.00;;;1.13;100.00
75414;BME280;64758;52.122;5.404;2022-12-11T02:29:54;101393.91;;;1.18;100.00
75414;BME280;64758;52.122;5.404;2022-12-11T02:32:29;101385.31;;;1.16;100.00
75414;BME280;64758;52.122;5.404;2022-12-11T02:35:30;101386.78;;;1.20;100.00
75414;BME280;64758;52.122;5.404;2022-12-11T02:38:25;101381.66;;;1.18;100.00
75414;BME280;64758;52.122;5.404;2022-12-11T02:40:54;101378.31;;;1.16;100.00
75414;BME280;64758;52.122;5.404;2022-12-11T02:43:24;101368.91;;;1.14;100.00
75414;BME280;64758;52.122;5.404;2022-12-11T02:45:51;101363.22;;;1.20;100.00
75414;BME280;64758;52.122;5.404;2022-12-11T02:48:21;101370.97;;;1.21;100.00
75414;BME280;64758;52.122;5.404;2022-12-11T02:50:52;101368.13;;;1.24;100.00
75414;BME280;64758;52.122;5.404;2022-12-11T02:53:24;101379.53;;;1.23;100.00
75414;BME280;64758;52.122;5.404;2022-12-11T02:55:58;101373.69;;;1.20;100.00
75414;BME280;64758;52.122;5.404;2022-12-11T02:58:30;101377.97;;;1.21;100.00
75414;BME280;64758;52.122;5.404;2022-12-11T03:00:58;101382.97;;;1.23;100.00
75414;BME280;64758;52.122;5.404;2022-12-11T03:03:27;101367.19;;;1.25;100.00
75414;BME280;64758;52.122;5.404;2022-12-11T03:05:54;101372.16;;;1.28;100.00
75414;BME280;64758;52.122;5.404;2022-12-11T03:08:21;101374.31;;;1.34;100.00
75414;BME280;64758;52.122;5.404;2022-12-11T03:10:47;101367.41;;;1.33;100.00
75414;BME280;64758;52.122;5.404;2022-12-11T03:13:18;101374.94;;;1.37;100.00
75414;BME280;64758;52.122;5.404;2022-12-11T03:16:02;101372.81;;;1.42;100.00
75414;BME280;64758;52.122;5.404;2022-12-11T03:18:38;101371.97;;;1.42;100.00
75414;BME280;64758;52.122;5.404;2022-12-11T03:21:14;101379.72;;;1.43;100.00
75414;BME280;64758;52.122;5.404;2022-12-11T03:23:56;101378.03;;;1.42;100.00
75414;BME280;64758;52.122;5.404;2022-12-11T03:26:28;101386.94;;;1.40;100.00
75414;BME280;64758;52.122;5.404;2022-12-11T03:29:12;101385.03;;;1.42;100.00
75414;BME280;64758;52.122;5.404;2022-12-11T03:31:43;101378.63;;;1.46;100.00
75414;BME280;64758;52.122;5.404;2022-12-11T03:34:22;101381.59;;;1.41;100.00
75414;BME280;64758;52.122;5.404;2022-12-11T03:36:51;101375.28;;;1.44;100.00
75414;BME280;64758;52.122;5.404;2022-12-11T03:39:28;101381.25;;;1.46;100.00
75414;BME280;64758;52.122;5.404;2022-12-11T03:42:00;101387.19;;;1.48;100.00
75414;BME280;64758;52.122;5.404;2022-12-11T03:44:28;101380.31;;;1.47;100.00
75414;BME280;64758;52.122;5.404;2022-12-11T03:46:59;101390.75;;;1.47;100.00
75414;BME280;64758;52.122;5.404;2022-12-11T03:49:28;101384.59;;;1.48;100.00
75414;BME280;64758;52.122;5.404;2022-12-11T03:51:58;101387.19;;;1.48;100.00
75414;BME280;64758;52.122;5.404;2022-12-11T03:54:27;101386.63;;;1.44;100.00
75414;BME280;64758;52.122;5.404;2022-12-11T03:56:56;101367.56;;;1.42;100.00
75414;BME280;64758;52.122;5.404;2022-12-11T03:59:23;101372.81;;;1.42;100.00
75414;BME280;64758;52.122;5.404;2022-12-11T04:01:50;101371.72;;;1.45;100.00
75414;BME280;64758;52.122;5.404;2022-12-11T04:04:17;101369.13;;;1.45;100.00
75414;BME280;64758;52.122;5.404;2022-12-11T04:06:43;101368.53;;;1.41;100.00
75414;BME280;64758;52.122;5.404;2022-12-11T04:09:10;101369.47;;;1.40;100.00
75414;BME280;64758;52.122;5.404;2022-12-11T04:11:37;101376.47;;;1.40;100.00
75414;BME280;64758;52.122;5.404;2022-12-11T04:14:10;101363.38;;;1.40;100.00
75414;BME280;64758;52.122;5.404;2022-12-11T04:16:56;101362.81;;;1.36;100.00
75414;BME280;64758;52.122;5.404;2022-12-11T04:19:23;101363.84;;;1.34;100.00
75414;BME280;64758;52.122;5.404;2022-12-11T04:22:13;101363.84;;;1.34;100.00
75414;BME280;64758;52.122;5.404;2022-12-11T04:25:00;101373.28;;;1.36;100.00
75414;BME280;64758;52.122;5.404;2022-12-11T04:27:27;101363.84;;;1.34;100.00
75414;BME280;64758;52.122;5.404;2022-12-11T04:30:15;101360.91;;;1.38;100.00
75414;BME280;64758;52.122;5.404;2022-12-11T04:32:42;101358.16;;;1.40;100.00
75414;BME280;64758;52.122;5.404;2022-12-11T04:35:10;101344.34;;;1.38;100.00
75414;BME280;64758;52.122;5.404;2022-12-11T04:37:37;101353.88;;;1.39;100.00
75414;BME280;64758;52.122;5.404;2022-12-11T04:40:06;101355.91;;;1.35;100.00
75414;BME280;64758;52.122;5.404;2022-12-11T04:42:33;101364.56;;;1.36;100.00
75414;BME280;64758;52.122;5.404;2022-12-11T04:45:00;101347.34;;;1.33;100.00
75414;BME280;64758;52.122;5.404;2022-12-11T04:47:26;101349.59;;;1.38;100.00
75414;BME280;64758;52.122;5.404;2022-12-11T04:49:53;101352.94;;;1.40;100.00
75414;BME280;64758;52.122;5.404;2022-12-11T04:52:19;101340.22;;;1.35;100.00
75414;BME280;64758;52.122;5.404;2022-12-11T04:54:46;101346.16;;;1.37;100.00
75414;BME280;64758;52.122;5.404;2022-12-11T04:57:13;101336.97;;;1.32;100.00
75414;BME280;64758;52.122;5.404;2022-12-11T04:59:39;101333.41;;;1.33;100.00
75414;BME280;64758;52.122;5.404;2022-12-11T05:02:06;101334.34;;;1.32;100.00
75414;BME280;64758;52.122;5.404;2022-12-11T05:04:34;101344.81;;;1.32;100.00
75414;BME280;64758;52.122;5.404;2022-12-11T05:07:00;101348.16;;;1.34;100.00
75414;BME280;64758;52.122;5.404;2022-12-11T05:09:27;101352.66;;;1.32;100.00
75414;BME280;64758;52.122;5.404;2022-12-11T05:11:54;101348.16;;;1.34;100.00
75414;BME280;64758;52.122;5.404;2022-12-11T05:14:21;101357.34;;;1.39;100.00
75414;BME280;64758;52.122;5.404;2022-12-11T05:16:47;101351.97;;;1.41;100.00
75414;BME280;64758;52.122;5.404;2022-12-11T05:19:14;101359.59;;;1.44;100.00
75414;BME280;64758;52.122;5.404;2022-12-11T05:21:40;101363.66;;;1.48;100.00
75414;BME280;64758;52.122;5.404;2022-12-11T05:24:07;101349.03;;;1.45;100.00
75414;BME280;64758;52.122;5.404;2022-12-11T05:26:34;101352.59;;;1.44;100.00
75414;BME280;64758;52.122;5.404;2022-12-11T05:29:00;101344.75;;;1.44;100.00
75414;BME280;64758;52.122;5.404;2022-12-11T05:31:27;101351.75;;;1.44;100.00
75414;BME280;64758;52.122;5.404;2022-12-11T05:33:53;101350.69;;;1.46;100.00
75414;BME280;64758;52.122;5.404;2022-12-11T05:36:29;101343.91;;;1.44;100.00
75414;BME280;64758;52.122;5.404;2022-12-11T05:38:57;101343.78;;;1.45;100.00
75414;BME280;64758;52.122;5.404;2022-12-11T05:41:26;101342.22;;;1.43;100.00
75414;BME280;64758;52.122;5.404;2022-12-11T05:43:54;101346.66;;;1.42;100.00
75414;BME280;64758;52.122;5.404;2022-12-11T05:46:29;101346.75;;;1.41;100.00
75414;BME280;64758;52.122;5.404;2022-12-11T05:48:59;101345.06;;;1.40;100.00
75414;BME280;64758;52.122;5.404;2022-12-11T05:51:27;101346.16;;;1.37;100.00
75414;BME280;64758;52.122;5.404;2022-12-11T05:53:55;101343.41;;;1.39;100.00
75414;BME280;64758;52.122;5.404;2022-12-11T05:56:24;101341.75;;;1.38;100.00
75414;BME280;64758;52.122;5.404;2022-12-11T05:58:52;101336.50;;;1.38;100.00
75414;BME280;64758;52.122;5.404;2022-12-11T06:01:22;101334.59;;;1.40;100.00
75414;BME280;64758;52.122;5.404;2022-12-11T06:03:49;101332.00;;;1.40;100.00
75414;BME280;64758;52.122;5.404;2022-12-11T06:06:15;101328.19;;;1.44;100.00
75414;BME280;64758;52.122;5.404;2022-12-11T06:08:42;101333.44;;;1.44;100.00
75414;BME280;64758;52.122;5.404;2022-12-11T06:11:11;101330.94;;;1.42;100.00
75414;BME280;64758;52.122;5.404;2022-12-11T06:13:39;101335.09;;;1.45;100.00
75414;BME280;64758;52.122;5.404;2022-12-11T06:16:07;101324.03;;;1.41;100.00
75414;BME280;64758;52.122;5.404;2022-12-11T06:18:38;101337.94;;;1.42;100.00
75414;BME280;64758;52.122;5.404;2022-12-11T06:21:16;101332.84;;;1.40;100.00
75414;BME280;64758;52.122;5.404;2022-12-11T06:23:44;101335.22;;;1.43;100.00
75414;BME280;64758;52.122;5.404;2022-12-11T06:26:12;101334.50;;;1.41;100.00
75414;BME280;64758;52.122;5.404;2022-12-11T06:28:39;101343.91;;;1.44;100.00
75414;BME280;64758;52.122;5.404;2022-12-11T06:31:06;101339.84;;;1.40;100.00
75414;BME280;64758;52.122;5.404;2022-12-11T06:33:33;101333.06;;;1.37;100.00
75414;BME280;64758;52.122;5.404;2022-12-11T06:36:04;101338.78;;;1.42;100.00
75414;BME280;64758;52.122;5.404;2022-12-11T06:38:31;101343.19;;;1.42;100.00
75414;BME280;64758;52.122;5.404;2022-12-11T06:40:58;101342.47;;;1.40;100.00
75414;BME280;64758;52.122;5.404;2022-12-11T06:43:25;101345.31;;;1.37;100.00
75414;BME280;64758;52.122;5.404;2022-12-11T06:45:52;101340.44;;;1.32;100.00
75414;BME280;64758;52.122;5.404;2022-12-11T06:48:22;101351.94;;;1.30;100.00
75414;BME280;64758;52.122;5.404;2022-12-11T06:50:48;101344.47;;;1.25;100.00
75414;BME280;64758;52.122;5.404;2022-12-11T06:53:15;101349.81;;;1.24;100.00
75414;BME280;64758;52.122;5.404;2022-12-11T06:55:42;101349.81;;;1.24;100.00
75414;BME280;64758;52.122;5.404;2022-12-11T06:58:08;101344.59;;;1.24;100.00
75414;BME280;64758;52.122;5.404;2022-12-11T07:00:36;101354.09;;;1.25;100.00
75414;BME280;64758;52.122;5.404;2022-12-11T07:03:04;101355.78;;;1.26;100.00
75414;BME280;64758;52.122;5.404;2022-12-11T07:05:31;101356.00;;;1.23;100.00
75414;BME280;64758;52.122;5.404;2022-12-11T07:07:58;101349.09;;;1.22;100.00
75414;BME280;64758;52.122;5.404;2022-12-11T07:10:25;101352.91;;;1.18;100.00
75414;BME280;64758;52.122;5.404;2022-12-11T07:12:52;101360.13;;;1.15;100.00
75414;BME280;64758;52.122;5.404;2022-12-11T07:15:19;101370.25;;;1.19;100.00
75414;BME280;64758;52.122;5.404;2022-12-11T07:17:46;101365.03;;;1.19;100.00
75414;BME280;64758;52.122;5.404;2022-12-11T07:20:12;101365.97;;;1.18;100.00
75414;BME280;64758;52.122;5.404;2022-12-11T07:22:39;101354.78;;;1.16;100.00
75414;BME280;64758;52.122;5.404;2022-12-11T07:25:11;101358.00;;;1.20;100.00
75414;BME280;64758;52.122;5.404;2022-12-11T07:27:38;101362.28;;;1.21;100.00
75414;BME280;64758;52.122;5.404;2022-12-11T07:30:05;101361.47;;;1.20;100.00
75414;BME280;64758;52.122;5.404;2022-12-11T07:32:32;101358.72;;;1.22;100.00
75414;BME280;64758;52.122;5.404;2022-12-11T07:34:59;101366.47;;;1.23;100.00
75414;BME280;64758;52.122;5.404;2022-12-11T07:37:25;101363.00;;;1.23;100.00
75414;BME280;64758;52.122;5.404;2022-12-11T07:39:52;101370.34;;;1.18;100.00
75414;BME280;64758;52.122;5.404;2022-12-11T07:42:18;101367.75;;;1.18;100.00
75414;BME280;64758;52.122;5.404;2022-12-11T07:44:45;101369.63;;;1.16;100.00
75414;BME280;64758;52.122;5.404;2022-12-11T07:47:11;101370.13;;;1.21;100.00
75414;BME280;64758;52.122;5.404;2022-12-11T07:49:38;101376.06;;;1.23;100.00
75414;BME280;64758;52.122;5.404;2022-12-11T07:52:04;101377.88;;;1.22;100.00
75414;BME280;64758;52.122;5.404;2022-12-11T07:54:31;101375.47;;;1.19;100.00
75414;BME280;64758;52.122;5.404;2022-12-11T07:56:57;101375.72;;;1.16;100.00
75414;BME280;64758;52.122;5.404;2022-12-11T07:59:24;101383.88;;;1.12;100.00
75414;BME280;64758;52.122;5.404;2022-12-11T08:01:50;101389.97;;;1.12;100.00
75414;BME280;64758;52.122;5.404;2022-12-11T08:04:17;101383.16;;;1.10;100.00
75414;BME280;64758;52.122;5.404;2022-12-11T08:06:43;101376.50;;;1.06;100.00
75414;BME280;64758;52.122;5.404;2022-12-11T08:09:11;101380.69;;;1.08;100.00
75414;BME280;64758;52.122;5.404;2022-12-11T08:11:50;101377.13;;;1.09;100.00
75414;BME280;64758;52.122;5.404;2022-12-11T08:14:17;101386.22;;;1.04;100.00
75414;BME280;64758;52.122;5.404;2022-12-11T08:16:43;101372.56;;;1.00;99.85
75414;BME280;64758;52.122;5.404;2022-12-11T08:19:11;101380.28;;;1.02;100.00
75414;BME280;64758;52.122;5.404;2022-12-11T08:21:38;101375.63;;;0.94;99.78
75414;BME280;64758;52.122;5.404;2022-12-11T08:24:05;101385.84;;;0.97;100.00
75414;BME280;64758;52.122;5.404;2022-12-11T08:26:32;101381.44;;;0.98;99.53
75414;BME280;64758;52.122;5.404;2022-12-11T08:28:59;101385.50;;;1.02;99.75
75414;BME280;64758;52.122;5.404;2022-12-11T08:31:27;101383.97;;;0.99;99.61
75414;BME280;64758;52.122;5.404;2022-12-11T08:33:54;101381.72;;;1.06;99.64
75414;BME280;64758;52.122;5.404;2022-12-11T08:36:21;101383.75;;;1.02;100.00
75414;BME280;64758;52.122;5.404;2022-12-11T08:38:48;101387.91;;;1.05;99.93
75414;BME280;64758;52.122;5.404;2022-12-11T08:41:18;101378.97;;;0.96;99.40
75414;BME280;64758;52.122;5.404;2022-12-11T08:43:45;101386.91;;;0.95;99.72
75414;BME280;64758;52.122;5.404;2022-12-11T08:46:12;101382.53;;;0.95;100.00
75414;BME280;64758;52.122;5.404;2022-12-11T08:48:40;101388.56;;;0.96;99.80
75414;BME280;64758;52.122;5.404;2022-12-11T08:51:11;101387.97;;;0.92;99.70
75414;BME280;64758;52.122;5.404;2022-12-11T08:53:38;101380.13;;;0.92;100.00
75414;BME280;64758;52.122;5.404;2022-12-11T08:56:07;101380.84;;;0.94;100.00
75414;BME280;64758;52.122;5.404;2022-12-11T08:58:35;101364.31;;;0.94;100.00
75414;BME280;64758;52.122;5.404;2022-12-11T09:01:09;101361.59;;;0.95;99.94
75414;BME280;64758;52.122;5.404;2022-12-11T09:03:37;101380.63;;;0.97;99.59
75414;BME280;64758;52.122;5.404;2022-12-11T09:06:06;101370.25;;;0.96;99.85
75414;BME280;64758;52.122;5.404;2022-12-11T09:08:33;101361.59;;;0.95;99.92
75414;BME280;64758;52.122;5.404;2022-12-11T09:11:08;101361.97;;;1.02;99.89
75414;BME280;64758;52.122;5.404;2022-12-11T09:13:35;101356.06;;;1.11;99.89
75414;BME280;64758;52.122;5.404;2022-12-11T09:16:07;101356.47;;;1.17;99.70
75414;BME280;64758;52.122;5.404;2022-12-11T09:18:36;101362.66;;;1.27;99.94
75414;BME280;64758;52.122;5.404;2022-12-11T09:21:05;101344.09;;;1.30;99.60
75414;BME280;64758;52.122;5.404;2022-12-11T09:23:32;101356.38;;;1.40;99.33
75414;BME280;64758;52.122;5.404;2022-12-11T09:25:59;101349.25;;;1.42;99.08
75414;BME280;64758;52.122;5.404;2022-12-11T09:28:25;101347.84;;;1.49;99.74
75414;BME280;64758;52.122;5.404;2022-12-11T09:30:52;101348.91;;;1.58;98.81
75414;BME280;64758;52.122;5.404;2022-12-11T09:33:19;101350.47;;;1.60;98.60
75414;BME280;64758;52.122;5.404;2022-12-11T09:35:45;101345.50;;;1.68;98.69
75414;BME280;64758;52.122;5.404;2022-12-11T09:38:12;101352.28;;;1.71;98.40
75414;BME280;64758;52.122;5.404;2022-12-11T09:40:41;101349.53;;;1.72;98.49
75414;BME280;64758;52.122;5.404;2022-12-11T09:45:42;101348.47;;;1.75;97.97
75414;BME280;64758;52.122;5.404;2022-12-11T09:48:10;101344.91;;;1.76;97.76
75414;BME280;64758;52.122;5.404;2022-12-11T09:50:36;101343.59;;;1.81;97.43
75414;BME280;64758;52.122;5.404;2022-12-11T09:56:02;101341.69;;;1.83;97.41
75414;BME280;64758;52.122;5.404;2022-12-11T10:01:39;101341.94;;;1.91;96.91
75414;BME280;64758;52.122;5.404;2022-12-11T10:09:49;101348.59;;;2.06;96.58
75414;BME280;64758;52.122;5.404;2022-12-11T10:15:43;101343.94;;;2.10;96.36
75414;BME280;64758;52.122;5.404;2022-12-11T10:18:15;101348.00;;;2.14;95.91
75414;BME280;64758;52.122;5.404;2022-12-11T10:20:43;101338.47;;;2.13;95.83
75414;BME280;64758;52.122;5.404;2022-12-11T10:23:18;101339.56;;;2.10;95.55
75414;BME280;64758;52.122;5.404;2022-12-11T10:25:50;101335.84;;;2.13;95.58
75414;BME280;64758;52.122;5.404;2022-12-11T10:28:19;101335.28;;;2.09;95.71
75414;BME280;64758;52.122;5.404;2022-12-11T10:30:58;101339.78;;;2.18;95.17
75414;BME280;64758;52.122;5.404;2022-12-11T10:33:37;101337.88;;;2.20;95.28
75414;BME280;64758;52.122;5.404;2022-12-11T10:36:06;101341.94;;;2.24;95.72
75414;BME280;64758;52.122;5.404;2022-12-11T10:38:37;101343.94;;;2.32;95.41
75414;BME280;64758;52.122;5.404;2022-12-11T10:41:17;101333.69;;;2.29;95.10
75414;BME280;64758;52.122;5.404;2022-12-11T10:43:48;101324.16;;;2.28;94.49
75414;BME280;64758;52.122;5.404;2022-12-11T10:46:20;101334.63;;;2.28;94.83
75414;BME280;64758;52.122;5.404;2022-12-11T10:51:16;101334.63;;;2.28;95.06
75414;BME280;64758;52.122;5.404;2022-12-11T10:53:51;101325.13;;;2.27;94.69
75414;BME280;64758;52.122;5.404;2022-12-11T10:56:26;101325.72;;;2.30;95.08
75414;BME280;64758;52.122;5.404;2022-12-11T10:58:55;101322.47;;;2.38;94.95
75414;BME280;64758;52.122;5.404;2022-12-11T11:01:24;101330.34;;;2.38;95.19
75414;BME280;64758;52.122;5.404;2022-12-11T11:04:05;101322.22;;;2.41;94.76
75414;BME280;64758;52.122;5.404;2022-12-11T11:06:39;101323.91;;;2.42;94.70
75414;BME280;64758;52.122;5.404;2022-12-11T11:09:27;101322.44;;;2.48;95.00
75414;BME280;64758;52.122;5.404;2022-12-11T11:11:54;101311.84;;;2.50;95.09
75414;BME280;64758;52.122;5.404;2022-12-11T11:14:21;101323.31;;;2.49;95.28
75414;BME280;64758;52.122;5.404;2022-12-11T11:16:54;101313.78;;;2.48;94.84
75414;BME280;64758;52.122;5.404;2022-12-11T11:19:24;101314.34;;;2.51;94.61
75414;BME280;64758;52.122;5.404;2022-12-11T11:21:55;101304.00;;;2.50;94.66
75414;BME280;64758;52.122;5.404;2022-12-11T11:24:26;101296.94;;;2.50;94.34
75414;BME280;64758;52.122;5.404;2022-12-11T11:26:54;101300.84;;;2.56;95.19
75414;BME280;64758;52.122;5.404;2022-12-11T11:29:39;101299.06;;;2.56;94.59
75414;BME280;64758;52.122;5.404;2022-12-11T11:32:22;101305.84;;;2.59;95.20
75414;BME280;64758;52.122;5.404;2022-12-11T11:34:49;101296.22;;;2.59;94.47
75414;BME280;64758;52.122;5.404;2022-12-11T11:37:30;101299.28;;;2.64;95.09
75414;BME280;64758;52.122;5.404;2022-12-11T11:40:05;101303.78;;;2.73;95.37
75414;BME280;64758;52.122;5.404;2022-12-11T11:42:46;101292.59;;;2.71;94.44
75414;BME280;64758;52.122;5.404;2022-12-11T11:45:19;101296.78;;;2.63;94.32
75414;BME280;64758;52.122;5.404;2022-12-11T11:47:55;101306.56;;;2.61;94.49
75414;BME280;64758;52.122;5.404;2022-12-11T11:50:32;101278.81;;;2.58;94.86
75414;BME280;64758;52.122;5.404;2022-12-11T11:55:38;101283.81;;;2.61;95.01
75414;BME280;64758;52.122;5.404;2022-12-11T11:58:20;101286.69;;;2.58;94.97
75414;BME280;64758;52.122;5.404;2022-12-11T12:00:53;101277.97;;;2.58;94.49
75414;BME280;64758;52.122;5.404;2022-12-11T12:03:22;101287.63;;;2.57;94.87
75414;BME280;64758;52.122;5.404;2022-12-11T12:05:57;101286.47;;;2.50;94.14
75414;BME280;64758;52.122;5.404;2022-12-11T12:11:13;101285.91;;;2.47;94.21
75414;BME280;64758;52.122;5.404;2022-12-11T12:22:29;101278.75;;;2.49;94.09
75414;BME280;64758;52.122;5.404;2022-12-11T12:27:45;101266.44;;;2.49;95.03
75414;BME280;64758;52.122;5.404;2022-12-11T12:30:18;101263.00;;;2.49;94.70
75414;BME280;64758;52.122;5.404;2022-12-11T12:36:17;101276.94;;;2.49;94.61
75414;BME280;64758;52.122;5.404;2022-12-11T12:39:00;101268.13;;;2.50;94.78
75414;BME280;64758;52.122;5.404;2022-12-11T12:41:46;101269.47;;;2.45;94.62
75414;BME280;64758;52.122;5.404;2022-12-11T12:44:18;101266.69;;;2.47;95.02
75414;BME280;64758;52.122;5.404;2022-12-11T12:46:50;101273.84;;;2.45;95.10
75414;BME280;64758;52.122;5.404;2022-12-11T12:49:33;101260.63;;;2.46;94.80
75414;BME280;64758;52.122;5.404;2022-12-11T12:52:02;101272.09;;;2.45;95.18
75414;BME280;64758;52.122;5.404;2022-12-11T12:54:30;101263.50;;;2.43;94.50
75414;BME280;64758;52.122;5.404;2022-12-11T12:57:00;101261.03;;;2.31;95.00
75414;BME280;64758;52.122;5.404;2022-12-11T12:59:28;101260.09;;;2.21;94.52
75414;BME280;64758;52.122;5.404;2022-12-11T13:02:00;101259.63;;;2.16;94.73
75414;BME280;64758;52.122;5.404;2022-12-11T13:04:33;101266.78;;;2.14;94.60
75414;BME280;64758;52.122;5.404;2022-12-11T13:07:26;101261.78;;;2.11;94.42
75414;BME280;64758;52.122;5.404;2022-12-11T13:12:46;101271.53;;;2.20;95.12
75414;BME280;64758;52.122;5.404;2022-12-11T13:15:29;101275.34;;;2.16;95.01
75414;BME280;64758;52.122;5.404;2022-12-11T13:17:57;101279.16;;;2.12;94.81
75414;BME280;64758;52.122;5.404;2022-12-11T13:20:26;101271.69;;;2.07;94.79
75414;BME280;64758;52.122;5.404;2022-12-11T13:25:29;101272.88;;;2.14;94.85
75414;BME280;64758;52.122;5.404;2022-12-11T13:28:07;101269.53;;;2.12;94.66
75414;BME280;64758;52.122;5.404;2022-12-11T13:31:05;101277.50;;;2.11;94.84
75414;BME280;64758;52.122;5.404;2022-12-11T13:33:38;101275.34;;;2.16;94.92
75414;BME280;64758;52.122;5.404;2022-12-11T13:38:51;101285.00;;;2.26;94.99
75414;BME280;64758;52.122;5.404;2022-12-11T13:41:19;101278.94;;;2.15;94.44
75414;BME280;64758;52.122;5.404;2022-12-11T13:43:48;101284.88;;;2.17;94.49
75414;BME280;64758;52.122;5.404;2022-12-11T13:46:23;101284.78;;;2.18;95.27
75414;BME280;64758;52.122;5.404;2022-12-11T13:48:53;101277.97;;;2.16;95.31
75414;BME280;64758;52.122;5.404;2022-12-11T13:51:24;101279.88;;;2.25;95.32
75414;BME280;64758;52.122;5.404;2022-12-11T13:54:14;101272.38;;;2.20;95.34
75414;BME280;64758;52.122;5.404;2022-12-11T13:59:36;101280.09;;;2.22;95.30
75414;BME280;64758;52.122;5.404;2022-12-11T14:02:18;101280.81;;;2.24;95.24
75414;BME280;64758;52.122;5.404;2022-12-11T14:04:48;101287.00;;;2.23;95.58